createdAt,value
2023-03-03T00:02:03.482Z,90.38
2023-03-03T00:07:06.232Z,94.97
2023-03-03T00:12:21.987Z,111.87
2023-03-03T00:17:27.985Z,101.68
2023-03-03T00:22:39.252Z,83.95
2023-03-03T00:27:42.994Z,94.50
2023-03-03T00:32:50.486Z,80.78
2023-03-03T00:38:01.991Z,86.68
2023-03-03T00:43:24.076Z,87.50
2023-03-03T00:48:50.850Z,86.10
2023-03-03T00:53:55.249Z,104.85
2023-03-03T00:58:58.409Z,77.70
2023-03-03T01:04:06.320Z,86.05
2023-03-03T01:09:10.267Z,66.28
2023-03-03T01:14:12.941Z,68.85
2023-03-03T01:19:17.096Z,82.53
2023-03-03T01:24:24.090Z,78.60
2023-03-03T01:29:26.819Z,71.10
2023-03-03T01:34:29.748Z,62.67
2023-03-03T01:39:34.171Z,74.32
2023-03-03T01:44:36.775Z,75.00
2023-03-03T01:49:56.105Z,69.63
2023-03-03T01:55:05.673Z,96.80
2023-03-03T02:00:11.570Z,108.45
2023-03-03T02:05:18.379Z,91.95
2023-03-03T02:10:21.951Z,107.25
2023-03-03T02:15:26.596Z,94.65
2023-03-03T02:20:52.436Z,98.13
2023-03-03T02:25:59.250Z,88.50
2023-03-03T02:31:13.742Z,81.88
2023-03-03T02:36:28.074Z,61.28
2023-03-03T02:41:37.288Z,81.40
2023-03-03T02:46:46.321Z,62.42
2023-03-03T02:51:55.458Z,57.03
2023-03-03T02:56:59.926Z,65.35
2023-03-03T03:02:04.724Z,76.18
2023-03-03T03:07:07.861Z,76.30
2023-03-03T03:12:13.148Z,74.82
2023-03-03T03:17:16.300Z,67.07
2023-03-03T03:22:20.088Z,71.22
2023-03-03T03:32:29.973Z,66.70
2023-03-03T03:37:33.853Z,65.10
2023-03-03T03:42:38.794Z,80.72
2023-03-03T03:47:45.548Z,77.97
2023-03-03T03:52:50.721Z,83.07
2023-03-03T03:57:53.842Z,78.72
2023-03-03T04:02:58.991Z,74.43
2023-03-03T04:08:02.876Z,70.85
2023-03-03T04:13:09.564Z,76.38
2023-03-03T04:18:14.675Z,52.97
2023-03-03T04:23:19.875Z,66.40
2023-03-03T04:28:25.428Z,57.58
2023-03-03T04:33:28.661Z,64.30
2023-03-03T04:38:31.869Z,49.90
2023-03-03T04:43:35.629Z,49.53
2023-03-03T04:48:46.002Z,42.95
2023-03-03T04:53:50.008Z,44.47
2023-03-03T04:58:53.244Z,56.53
2023-03-03T05:03:59.700Z,51.55
2023-03-03T05:09:04.249Z,46.90
2023-03-03T05:14:08.394Z,35.15
2023-03-03T05:19:11.486Z,39.08
2023-03-03T05:24:14.562Z,45.60
2023-03-03T05:29:17.491Z,37.50
2023-03-03T05:34:21.109Z,35.28
2023-03-03T05:44:28.650Z,43.20
2023-03-03T05:49:32.533Z,42.83
2023-03-03T05:54:35.892Z,45.63
2023-03-03T05:59:38.545Z,40.78
2023-03-03T06:04:45.134Z,44.53
2023-03-03T06:09:47.987Z,52.83
2023-03-03T06:14:55.741Z,33.60
2023-03-03T06:19:58.333Z,38.22
2023-03-03T06:25:01.034Z,43.70
2023-03-03T06:30:05.117Z,45.60
2023-03-03T06:35:08.910Z,44.33
2023-03-03T06:40:14.490Z,43.28
2023-03-03T06:45:17.363Z,58.40
2023-03-03T06:50:25.947Z,60.10
2023-03-03T06:55:28.713Z,84.20
2023-03-03T07:00:35.207Z,187.35
2023-03-03T07:05:40.558Z,104.25
2023-03-03T07:10:45.440Z,68.93
2023-03-03T07:15:53.796Z,75.22
2023-03-03T07:21:17.174Z,84.15
2023-03-03T07:26:33.176Z,74.20
2023-03-03T07:31:42.173Z,138.65
2023-03-03T07:36:46.909Z,156.65
2023-03-03T07:41:53.330Z,85.60
2023-03-03T07:47:01.446Z,81.78
2023-03-03T07:52:25.141Z,126.03
2023-03-03T07:57:40.965Z,117.10
2023-03-03T08:03:10.138Z,98.72
2023-03-03T08:08:21.500Z,83.20
2023-03-03T08:13:38.989Z,131.75
2023-03-03T08:18:51.817Z,96.82
2023-03-03T08:23:58.057Z,88.53
2023-03-03T08:29:01.619Z,114.63
2023-03-03T08:34:06.575Z,109.88
2023-03-03T08:44:15.386Z,79.10
2023-03-03T08:49:47.927Z,58.75
2023-03-03T08:55:59.699Z,73.43
2023-03-03T09:01:08.792Z,79.63
2023-03-03T09:06:14.449Z,79.45
2023-03-03T09:11:25.484Z,71.72
2023-03-03T09:16:41.228Z,99.45
2023-03-03T09:21:44.272Z,78.55
2023-03-03T09:26:53.257Z,51.63
2023-03-03T09:32:02.732Z,57.22
2023-03-03T09:37:34.585Z,53.28
2023-03-03T09:42:53.790Z,50.38
2023-03-03T09:48:29.595Z,41.75
2023-03-03T09:53:57.457Z,45.47
2023-03-03T09:59:41.931Z,29.88
2023-03-03T10:05:30.262Z,28.20
2023-03-03T10:10:54.553Z,32.10
2023-03-03T10:16:32.611Z,33.13
2023-03-03T10:21:52.226Z,28.60
2023-03-03T10:27:13.927Z,56.05
2023-03-03T10:32:27.280Z,30.52
2023-03-03T10:38:00.613Z,32.65
2023-03-03T10:43:15.332Z,25.98
2023-03-03T10:48:49.368Z,33.72
2023-03-03T10:54:18.504Z,29.05
2023-03-03T10:59:28.322Z,39.42
2023-03-03T11:05:02.487Z,106.90
2023-03-03T11:10:54.499Z,93.22
2023-03-03T11:16:27.932Z,108.38
2023-03-03T11:22:02.367Z,186.38
2023-03-03T11:27:15.952Z,111.45
2023-03-03T11:32:32.872Z,68.93
2023-03-03T11:38:20.175Z,83.57
2023-03-03T11:43:51.907Z,97.93
2023-03-03T11:48:54.507Z,71.07
2023-03-03T11:54:01.796Z,94.85
2023-03-03T11:59:35.990Z,73.70
2023-03-03T12:10:29.955Z,49.60
2023-03-03T12:15:42.654Z,48.08
2023-03-03T12:21:21.594Z,58.55
2023-03-03T12:27:00.318Z,82.32
2023-03-03T12:32:24.459Z,87.05
2023-03-03T12:38:27.748Z,77.28
2023-03-03T12:44:15.914Z,54.35
2023-03-03T12:49:42.678Z,110.30
2023-03-03T12:55:28.683Z,86.95
2023-03-03T13:01:24.779Z,92.82
2023-03-03T13:06:54.456Z,81.38
2023-03-03T13:12:36.570Z,63.95
2023-03-03T13:17:59.273Z,49.22
2023-03-03T13:23:33.722Z,163.32
2023-03-03T13:28:48.646Z,109.50
2023-03-03T13:33:59.554Z,96.28
2023-03-03T13:39:15.288Z,96.70
2023-03-03T13:44:23.148Z,90.93
2023-03-03T13:49:29.792Z,89.28
2023-03-03T13:54:56.578Z,71.20
2023-03-03T14:00:17.957Z,83.95
2023-03-03T14:05:46.640Z,55.03
2023-03-03T14:11:13.970Z,67.55
2023-03-03T14:16:52.336Z,94.93
2023-03-03T14:22:36.391Z,96.22
2023-03-03T14:27:49.790Z,62.58
2023-03-03T14:33:36.857Z,71.53
2023-03-03T14:38:45.078Z,72.57
2023-03-03T14:44:30.460Z,57.88
2023-03-03T14:49:37.205Z,58.72
2023-03-03T14:54:42.686Z,104.03
2023-03-03T15:00:15.384Z,94.97
2023-03-03T15:05:24.274Z,108.25
2023-03-03T15:10:49.600Z,110.63
2023-03-03T15:16:24.160Z,107.82
2023-03-03T15:21:36.709Z,130.88
2023-03-03T15:27:07.632Z,88.80
2023-03-03T15:32:37.330Z,82.07
2023-03-03T15:38:19.025Z,89.93
2023-03-03T15:43:37.832Z,136.48
2023-03-03T15:49:01.428Z,79.32
2023-03-03T15:59:44.091Z,107.90
2023-03-03T16:05:00.253Z,77.90
2023-03-03T16:10:19.138Z,188.80
2023-03-03T16:21:45.165Z,251.63
2023-03-03T16:27:00.294Z,333.02
2023-03-03T16:32:16.949Z,248.18
2023-03-03T16:37:31.134Z,203.35
2023-03-03T16:42:43.407Z,281.45
2023-03-03T16:48:05.127Z,175.32
2023-03-03T16:53:20.315Z,142.50
2023-03-03T16:58:41.661Z,105.28
2023-03-03T17:04:07.106Z,123.95
2023-03-03T17:09:34.112Z,114.90
2023-03-03T17:14:54.997Z,79.43
2023-03-03T17:20:31.741Z,83.97
2023-03-03T17:25:59.205Z,77.27
2023-03-03T17:31:38.857Z,102.45
2023-03-03T17:36:59.921Z,73.72
2023-03-03T17:42:23.321Z,74.72
2023-03-03T17:47:52.115Z,74.22
2023-03-03T17:53:10.208Z,77.45
2023-03-03T17:58:45.132Z,357.98
2023-03-03T18:04:33.229Z,393.45
2023-03-03T18:09:47.936Z,144.57
2023-03-03T18:15:16.457Z,166.68
2023-03-03T18:20:44.991Z,128.10
2023-03-03T18:26:02.570Z,223.90
2023-03-03T18:31:33.992Z,102.70
2023-03-03T18:37:07.091Z,84.50
2023-03-03T18:42:15.975Z,100.03
2023-03-03T18:47:20.357Z,139.18
2023-03-03T18:52:32.201Z,88.15
2023-03-03T18:57:37.559Z,101.28
2023-03-03T19:02:53.953Z,83.72
2023-03-03T19:08:00.913Z,136.25
2023-03-03T19:13:42.881Z,159.35
2023-03-03T19:18:47.684Z,199.77
2023-03-03T19:24:01.016Z,148.77
2023-03-03T19:29:30.789Z,215.73
2023-03-03T19:34:41.325Z,187.02
2023-03-03T19:39:54.732Z,153.13
2023-03-03T19:45:21.560Z,115.85
2023-03-03T19:50:33.263Z,175.35
2023-03-03T19:56:02.707Z,159.02
2023-03-03T20:01:33.448Z,118.57
2023-03-03T20:06:52.699Z,118.68
2023-03-03T20:12:15.120Z,126.82
2023-03-03T20:17:44.229Z,112.80
2023-03-03T20:23:24.769Z,81.40
2023-03-03T20:28:54.848Z,81.22
2023-03-03T20:34:52.636Z,93.18
2023-03-03T20:40:27.963Z,87.15
2023-03-03T20:45:49.129Z,69.93
2023-03-03T20:51:16.427Z,72.13
2023-03-03T20:56:29.590Z,64.50
2023-03-03T21:01:44.280Z,56.63
2023-03-03T21:06:47.901Z,55.50
2023-03-03T21:16:57.203Z,54.97
2023-03-03T21:22:04.856Z,50.63
2023-03-03T21:27:28.803Z,46.00
2023-03-03T21:32:47.464Z,50.28
2023-03-03T21:37:59.343Z,43.13
2023-03-03T21:43:05.732Z,51.10
2023-03-03T21:58:44.037Z,50.22
2023-03-03T22:03:46.988Z,51.33
2023-03-03T22:08:51.025Z,48.17
2023-03-03T22:13:56.713Z,38.50
2023-03-03T22:19:01.726Z,39.85
2023-03-03T22:24:11.892Z,41.08
2023-03-03T22:29:22.882Z,38.72
2023-03-03T22:34:28.340Z,38.65
2023-03-03T22:39:35.975Z,38.63
2023-03-03T22:44:42.529Z,37.20
2023-03-03T22:49:47.490Z,37.72
2023-03-03T22:55:04.312Z,35.92
2023-03-03T23:00:11.981Z,34.58
2023-03-03T23:05:15.969Z,34.38
2023-03-03T23:10:21.854Z,41.53
2023-03-03T23:15:32.181Z,44.30
2023-03-03T23:20:35.142Z,42.58
2023-03-03T23:25:40.239Z,47.87
2023-03-03T23:30:43.241Z,64.40
2023-03-03T23:35:45.837Z,60.50
2023-03-03T23:40:50.526Z,67.75
2023-03-03T23:45:54.238Z,52.65
2023-03-03T23:50:59.550Z,46.92
2023-03-03T23:56:03.523Z,55.53
